Time;durP1;ratioP1;P1;durP2;ratioP2;P2;SDS_P1;SDS_P2;PMS_P1;PMS_P2;Temp;Humidity;BMP_temperature;BMP_pressure;BME280_temperature;BME280_humidity;BME280_pressure;Samples;Min_cycle;Max_cycle;Signal;HPM_P1;HPM_P2
2023/01/10 00:00:03;;;;;;;15.47;10.40;;;;;;;;;;4962713;28;20480;-74
2023/01/10 00:02:52;;;;;;;13.87;9.87;;;;;;;;;;4962145;28;20492;-73
2023/01/10 00:05:42;;;;;;;15.17;9.40;;;;;;;;;;4962581;28;21015;-74
2023/01/10 00:08:31;;;;;;;11.87;8.80;;;;;;;;;;4960614;28;20466;-74
2023/01/10 00:14:33;;;;;;;14.03;8.70;;;;;;;;;;4952350;28;21003;-75
2023/01/10 00:17:22;;;;;;;11.93;8.70;;;;;;;;;;4962776;28;20813;-74
2023/01/10 00:20:15;;;;;;;13.30;9.07;;;;;;;;;;4941211;28;20617;-74
2023/01/10 00:23:07;;;;;;;15.80;8.53;;;;;;;;;;4956234;28;20462;-75
2023/01/10 00:25:58;;;;;;;15.00;8.50;;;;;;;;;;4950838;28;20482;-74
2023/01/10 00:28:49;;;;;;;13.40;8.60;;;;;;;;;;4954230;28;20994;-74
2023/01/10 00:31:38;;;;;;;13.47;9.37;;;;;;;;;;4941041;28;21138;-74
2023/01/10 00:34:34;;;;;;;15.93;8.67;;;;;;;;;;4937405;28;20987;-74
2023/01/10 00:37:25;;;;;;;14.70;8.83;;;;;;;;;;4942245;28;20471;-73
2023/01/10 00:40:14;;;;;;;18.33;8.40;;;;;;;;;;4937329;28;20519;-74
2023/01/10 00:46:21;;;;;;;14.40;7.90;;;;;;;;;;4938641;28;20530;-74
2023/01/10 00:49:10;;;;;;;11.27;7.60;;;;;;;;;;4941703;28;20915;-73
2023/01/10 00:51:59;;;;;;;11.13;7.80;;;;;;;;;;4954664;28;20466;-74
2023/01/10 00:54:51;;;;;;;12.43;7.10;;;;;;;;;;4953813;28;20516;-74
2023/01/10 00:57:39;;;;;;;13.07;7.10;;;;;;;;;;4940020;28;20498;-73
2023/01/10 01:00:32;;;;;;;12.73;8.50;;;;;;;;;;4934746;28;20868;-72
2023/01/10 01:03:23;;;;;;;9.50;7.27;;;;;;;;;;4938570;28;20957;-74
2023/01/10 01:06:12;;;;;;;14.23;7.57;;;;;;;;;;4942190;28;20521;-74
2023/01/10 01:09:04;;;;;;;13.47;7.80;;;;;;;;;;4942422;28;21368;-74
2023/01/10 01:11:56;;;;;;;15.93;7.70;;;;;;;;;;4945711;28;21069;-74
2023/01/10 01:14:45;;;;;;;12.10;7.57;;;;;;;;;;4938140;28;20531;-73
2023/01/10 01:17:36;;;;;;;11.23;6.40;;;;;;;;;;4953879;28;20498;-74
2023/01/10 01:20:29;;;;;;;11.30;6.77;;;;;;;;;;4954736;28;20478;-74
2023/01/10 01:23:18;;;;;;;16.20;7.40;;;;;;;;;;4942127;28;20455;-74
2023/01/10 01:26:07;;;;;;;11.23;6.60;;;;;;;;;;4959909;28;21062;-75
2023/01/10 01:28:55;;;;;;;8.73;6.27;;;;;;;;;;4937138;28;20690;-74
2023/01/10 01:31:47;;;;;;;9.13;6.57;;;;;;;;;;4946076;28;20512;-75
2023/01/10 01:34:35;;;;;;;8.53;6.27;;;;;;;;;;4942176;28;20863;-75
2023/01/10 01:37:27;;;;;;;13.33;7.00;;;;;;;;;;4948636;28;20513;-74
2023/01/10 01:40:17;;;;;;;13.23;6.60;;;;;;;;;;4952517;28;20502;-74
2023/01/10 01:43:20;;;;;;;9.13;7.30;;;;;;;;;;4947185;28;20465;-75
2023/01/10 01:46:10;;;;;;;10.00;6.33;;;;;;;;;;4951899;28;20719;-74
2023/01/10 01:49:02;;;;;;;8.20;6.27;;;;;;;;;;4938914;28;20490;-74
2023/01/10 11:05:39;;;;;;;24.47;10.60;;;;;;;;;;5695628;23;21344;-94
2023/01/10 11:08:52;;;;;;;17.23;9.70;;;;;;;;;;4948609;28;20495;-91
2023/01/10 11:12:12;;;;;;;12.70;9.53;;;;;;;;;;4937243;28;20477;-90
2023/01/10 11:15:15;;;;;;;13.33;9.83;;;;;;;;;;4928602;28;20489;-91
2023/01/10 11:18:21;;;;;;;14.67;9.37;;;;;;;;;;4919511;29;20465;-90
2023/01/10 11:21:42;;;;;;;14.47;9.20;;;;;;;;;;4921780;29;20449;-89
2023/01/10 11:24:50;;;;;;;14.97;9.40;;;;;;;;;;4925615;29;20472;-91
2023/01/10 11:27:51;;;;;;;12.57;9.50;;;;;;;;;;4934818;28;20468;-91
2023/01/10 11:30:52;;;;;;;17.07;9.30;;;;;;;;;;4926761;29;20453;-92
2023/01/10 11:33:57;;;;;;;14.17;9.57;;;;;;;;;;4923446;29;20505;-88
2023/01/10 11:37:23;;;;;;;13.93;9.10;;;;;;;;;;4921193;29;20489;-92
2023/01/10 11:40:31;;;;;;;14.20;10.03;;;;;;;;;;4925803;29;20565;-92
2023/01/10 11:43:26;;;;;;;17.20;9.17;;;;;;;;;;4921791;29;20448;-91
2023/01/10 11:46:26;;;;;;;16.03;9.57;;;;;;;;;;4901117;29;20504;-92
2023/01/10 11:49:31;;;;;;;15.50;9.13;;;;;;;;;;4932508;29;20442;-90
2023/01/10 11:52:38;;;;;;;18.53;10.00;;;;;;;;;;4922281;29;20449;-92
2023/01/10 11:55:36;;;;;;;14.20;9.50;;;;;;;;;;4927831;29;20553;-92
2023/01/10 12:02:18;;;;;;;16.13;10.47;;;;;;;;;;4926282;29;20491;-90
2023/01/10 12:05:27;;;;;;;13.03;9.50;;;;;;;;;;4920035;29;20498;-89
2023/01/10 12:08:25;;;;;;;16.43;9.40;;;;;;;;;;4921121;29;20477;-91
2023/01/10 12:11:28;;;;;;;11.33;9.10;;;;;;;;;;4923642;29;20449;-91
2023/01/10 12:14:21;;;;;;;13.27;10.03;;;;;;;;;;4915911;28;21574;-91
2023/01/10 12:17:48;;;;;;;13.50;10.10;;;;;;;;;;4924884;28;20461;-89
2023/01/10 12:21:00;;;;;;;11.60;9.00;;;;;;;;;;4920642;29;20489;-90
2023/01/10 12:24:23;;;;;;;18.00;9.57;;;;;;;;;;4928691;29;20478;-92
2023/01/10 12:27:59;;;;;;;14.93;9.83;;;;;;;;;;4930398;29;20500;-89
2023/01/10 12:31:24;;;;;;;17.27;10.00;;;;;;;;;;4923917;29;20469;-91
2023/01/10 12:34:36;;;;;;;12.83;9.93;;;;;;;;;;4918304;29;20469;-91
2023/01/10 12:37:38;;;;;;;17.00;10.20;;;;;;;;;;4923292;29;20465;-90
2023/01/10 12:40:52;;;;;;;19.83;10.20;;;;;;;;;;4920250;29;20504;-90
2023/01/10 12:44:13;;;;;;;14.43;9.93;;;;;;;;;;4919829;28;20458;-91
2023/01/10 12:47:20;;;;;;;16.13;10.40;;;;;;;;;;4927240;29;20592;-92
2023/01/10 12:53:57;;;;;;;14.70;9.47;;;;;;;;;;4925328;29;20453;-91
2023/01/10 13:00:08;;;;;;;14.03;10.00;;;;;;;;;;4916370;29;20470;-92
2023/01/10 13:03:15;;;;;;;17.20;10.80;;;;;;;;;;4923326;28;20473;-89
2023/01/10 13:06:37;;;;;;;15.67;10.37;;;;;;;;;;4910205;28;20489;-89
2023/01/10 13:09:42;;;;;;;16.40;10.70;;;;;;;;;;4902604;29;20516;-92
2023/01/10 13:16:21;;;;;;;20.00;11.47;;;;;;;;;;4922057;29;20466;-92
2023/01/10 13:19:25;;;;;;;13.83;11.30;;;;;;;;;;4931024;29;20517;-92
2023/01/10 13:22:28;;;;;;;15.27;10.97;;;;;;;;;;4930758;29;20446;-95
2023/01/10 13:28:40;;;;;;;13.70;10.40;;;;;;;;;;4921586;29;20521;-92
2023/01/10 13:31:34;;;;;;;14.90;10.43;;;;;;;;;;4927805;29;20441;-89
2023/01/10 13:34:44;;;;;;;11.77;10.33;;;;;;;;;;4929079;28;20529;-92
2023/01/10 13:38:02;;;;;;;18.47;11.03;;;;;;;;;;4922674;29;20441;-90
2023/01/10 13:41:06;;;;;;;14.40;10.40;;;;;;;;;;4928128;29;20461;-92
2023/01/10 13:48:09;;;;;;;16.87;10.43;;;;;;;;;;4935338;29;20464;-92
2023/01/10 13:51:31;;;;;;;18.90;10.57;;;;;;;;;;4930255;29;20457;-93
2023/01/10 13:55:27;;;;;;;12.00;10.20;;;;;;;;;;4915009;29;20465;-93
2023/01/10 14:05:17;;;;;;;13.43;9.60;;;;;;;;;;4918048;29;20486;-91
2023/01/10 14:08:35;;;;;;;17.83;9.50;;;;;;;;;;4931658;29;20484;-92
2023/01/10 14:11:54;;;;;;;11.70;9.13;;;;;;;;;;4931226;29;20457;-92
2023/01/10 14:15:03;;;;;;;17.47;9.47;;;;;;;;;;4930792;29;20477;-93
2023/01/10 14:18:07;;;;;;;12.70;9.47;;;;;;;;;;4927170;29;20450;-89
2023/01/10 14:21:28;;;;;;;14.80;9.60;;;;;;;;;;4926650;29;20479;-90
2023/01/10 14:24:47;;;;;;;11.37;8.87;;;;;;;;;;4918824;29;20477;-91
2023/01/10 14:31:22;;;;;;;14.30;9.10;;;;;;;;;;4930969;29;20457;-91
2023/01/10 14:34:27;;;;;;;13.40;8.03;;;;;;;;;;4923853;29;20599;-92
2023/01/10 14:40:49;;;;;;;14.10;8.30;;;;;;;;;;5143419;27;20545;-89
2023/01/10 14:47:41;;;;;;;13.30;7.30;;;;;;;;;;5050091;28;21106;-90
2023/01/10 14:50:48;;;;;;;12.23;7.47;;;;;;;;;;5061654;28;20446;-90
2023/01/10 14:54:06;;;;;;;7.20;6.40;;;;;;;;;;5057258;28;20448;-91
2023/01/10 15:00:14;;;;;;;11.47;7.30;;;;;;;;;;5052164;28;20468;-89
2023/01/10 15:03:08;;;;;;;10.03;6.57;;;;;;;;;;5049539;28;20527;-90
2023/01/10 15:06:04;;;;;;;10.53;6.07;;;;;;;;;;5051867;28;20469;-92
2023/01/10 15:09:18;;;;;;;10.47;6.30;;;;;;;;;;5070646;28;20443;-92
2023/01/10 15:12:13;;;;;;;9.00;6.60;;;;;;;;;;5064074;28;20530;-91
2023/01/10 15:15:06;;;;;;;14.60;6.70;;;;;;;;;;5060357;28;20453;-93
2023/01/10 15:18:10;;;;;;;13.80;6.60;;;;;;;;;;5063043;28;20848;-95
2023/01/10 15:21:10;;;;;;;15.67;6.93;;;;;;;;;;5071164;28;20515;-91
2023/01/10 15:24:29;;;;;;;13.83;6.90;;;;;;;;;;5064213;28;20545;-94
2023/01/10 15:27:35;;;;;;;13.30;6.80;;;;;;;;;;5063444;28;20487;-92
2023/01/10 15:30:41;;;;;;;16.07;7.67;;;;;;;;;;5066038;28;20512;-92
2023/01/10 15:33:55;;;;;;;10.20;6.30;;;;;;;;;;5066351;28;20453;-91
2023/01/10 15:37:03;;;;;;;15.53;6.93;;;;;;;;;;5050776;28;20466;-92
2023/01/10 15:39:53;;;;;;;9.57;6.13;;;;;;;;;;5071546;28;20543;-90
2023/01/10 15:42:52;;;;;;;11.03;7.27;;;;;;;;;;5083715;28;20470;-90
2023/01/10 15:45:52;;;;;;;15.27;7.30;;;;;;;;;;5068377;28;20566;-91
2023/01/10 15:48:59;;;;;;;8.50;6.37;;;;;;;;;;5082049;28;20464;-89
2023/01/10 15:52:03;;;;;;;12.90;7.43;;;;;;;;;;5066950;28;20458;-92
2023/01/10 15:55:13;;;;;;;12.80;6.90;;;;;;;;;;5067390;28;20495;-91
2023/01/10 15:58:20;;;;;;;12.77;8.00;;;;;;;;;;5067844;28;20439;-90
2023/01/10 16:04:52;;;;;;;15.37;8.90;;;;;;;;;;5064209;28;20458;-92
2023/01/10 16:07:45;;;;;;;14.53;8.63;;;;;;;;;;5065431;28;20447;-93
2023/01/10 16:14:04;;;;;;;14.47;9.77;;;;;;;;;;5064410;28;20447;-94
2023/01/10 16:17:11;;;;;;;11.80;8.97;;;;;;;;;;5041979;28;20599;-94
2023/01/10 16:20:09;;;;;;;13.60;9.00;;;;;;;;;;5048668;28;20502;-91
2023/01/10 16:23:01;;;;;;;13.77;9.03;;;;;;;;;;5048124;28;20436;-91
2023/01/10 16:25:51;;;;;;;14.30;8.90;;;;;;;;;;5034444;28;20897;-91
2023/01/10 16:28:53;;;;;;;14.73;9.10;;;;;;;;;;5044403;28;20444;-90
2023/01/10 16:31:53;;;;;;;18.40;9.67;;;;;;;;;;5051904;28;20440;-93
2023/01/10 16:34:49;;;;;;;11.80;8.90;;;;;;;;;;5055429;28;20573;-91
2023/01/10 16:37:50;;;;;;;15.90;9.00;;;;;;;;;;5065134;28;20484;-91
2023/01/10 16:40:44;;;;;;;15.20;8.87;;;;;;;;;;5054215;28;20462;-92
2023/01/10 16:43:55;;;;;;;13.10;9.27;;;;;;;;;;5061846;28;20511;-92
2023/01/10 16:47:25;;;;;;;15.33;9.57;;;;;;;;;;5055156;28;20494;-91
2023/01/10 16:53:37;;;;;;;12.63;9.23;;;;;;;;;;5059727;28;20447;-91
2023/01/10 16:56:41;;;;;;;13.50;9.87;;;;;;;;;;5046392;28;20463;-90
2023/01/10 16:59:37;;;;;;;16.77;9.50;;;;;;;;;;5065733;28;20528;-91
2023/01/10 17:02:42;;;;;;;19.57;10.40;;;;;;;;;;5065936;28;20470;-93
2023/01/10 17:12:22;;;;;;;20.50;11.27;;;;;;;;;;5066586;28;20458;-91
2023/01/10 17:15:19;;;;;;;19.20;10.97;;;;;;;;;;5054902;28;20482;-90
2023/01/10 17:18:23;;;;;;;15.37;10.77;;;;;;;;;;5054357;28;20446;-90
2023/01/10 17:21:36;;;;;;;13.60;10.07;;;;;;;;;;5063314;28;20454;-88
2023/01/10 17:28:26;;;;;;;;;;;;;;;;;;;;;
2023/01/10 17:31:34;;;;;;;14.43;9.43;;;;;;;;;;4997911;28;20566;-92
2023/01/10 17:34:43;;;;;;;21.13;12.80;;;;;;;;;;5000146;28;20472;-91
2023/01/10 17:37:49;;;;;;;16.47;10.90;;;;;;;;;;5012421;28;20533;-91
2023/01/10 17:41:00;;;;;;;14.33;8.90;;;;;;;;;;5002827;28;20457;-93
2023/01/10 17:51:36;;;;;;;14.23;9.30;;;;;;;;;;4972567;28;20473;-93
2023/01/10 17:54:43;;;;;;;11.97;8.93;;;;;;;;;;5004919;28;20556;-92
2023/01/10 17:57:49;;;;;;;12.83;8.43;;;;;;;;;;4999933;28;20491;-94
2023/01/10 18:07:11;;;;;;;16.30;8.57;;;;;;;;;;5045646;28;20490;-93
2023/01/10 18:10:16;;;;;;;17.50;9.47;;;;;;;;;;5047839;28;20544;-94
2023/01/10 18:13:13;;;;;;;11.73;7.13;;;;;;;;;;5043077;28;20983;-92
2023/01/10 18:16:25;;;;;;;14.67;7.30;;;;;;;;;;5042371;28;20522;-91
2023/01/10 18:19:25;;;;;;;11.57;8.03;;;;;;;;;;5044526;28;20457;-93
2023/01/10 18:25:44;;;;;;;11.67;7.17;;;;;;;;;;5042623;28;20496;-90
2023/01/10 18:28:40;;;;;;;13.50;7.20;;;;;;;;;;5037841;28;20527;-90
2023/01/10 18:31:42;;;;;;;15.93;8.30;;;;;;;;;;5046234;28;20655;-89
2023/01/10 18:34:35;;;;;;;11.67;7.37;;;;;;;;;;5037318;28;20483;-90
2023/01/10 18:37:26;;;;;;;16.40;7.17;;;;;;;;;;5069740;28;20471;-95
2023/01/10 18:59:18;;;;;;;9.63;6.00;;;;;;;;;;5168663;23;20719;-95
2023/01/10 19:02:46;;;;;;;12.30;5.90;;;;;;;;;;5032712;28;20460;-96
